sensor_id;sensor_type;location;lat;lon;timestamp;P1;durP1;ratioP1;P2;durP2;ratioP2
7683;SDS011;3884;48.616;12.872;2023-06-22T00:00:56;7.77;;;5.37;;
7683;SDS011;3884;48.616;12.872;2023-06-22T00:03:23;6.60;;;5.40;;
7683;SDS011;3884;48.616;12.872;2023-06-22T00:05:51;8.23;;;5.23;;
7683;SDS011;3884;48.616;12.872;2023-06-22T00:08:19;10.33;;;5.83;;
7683;SDS011;3884;48.616;12.872;2023-06-22T00:10:47;8.50;;;5.43;;
7683;SDS011;3884;48.616;12.872;2023-06-22T00:13:14;9.43;;;5.63;;
7683;SDS011;3884;48.616;12.872;2023-06-22T00:15:42;7.30;;;5.10;;
7683;SDS011;3884;48.616;12.872;2023-06-22T00:18:09;7.87;;;5.17;;
7683;SDS011;3884;48.616;12.872;2023-06-22T00:20:37;8.63;;;5.23;;
7683;SDS011;3884;48.616;12.872;2023-06-22T00:23:04;9.80;;;5.37;;
7683;SDS011;3884;48.616;12.872;2023-06-22T00:25:34;10.60;;;5.93;;
7683;SDS011;3884;48.616;12.872;2023-06-22T00:28:01;10.23;;;5.77;;
7683;SDS011;3884;48.616;12.872;2023-06-22T00:30:29;8.07;;;5.60;;
7683;SDS011;3884;48.616;12.872;2023-06-22T00:32:57;13.03;;;5.63;;
7683;SDS011;3884;48.616;12.872;2023-06-22T00:35:24;8.93;;;5.93;;
7683;SDS011;3884;48.616;12.872;2023-06-22T00:37:54;9.27;;;5.90;;
7683;SDS011;3884;48.616;12.872;2023-06-22T00:40:25;6.80;;;5.03;;
7683;SDS011;3884;48.616;12.872;2023-06-22T00:42:54;8.77;;;5.87;;
7683;SDS011;3884;48.616;12.872;2023-06-22T00:45:21;7.63;;;5.83;;
7683;SDS011;3884;48.616;12.872;2023-06-22T00:47:49;7.47;;;5.60;;
7683;SDS011;3884;48.616;12.872;2023-06-22T00:50:18;10.37;;;6.00;;
7683;SDS011;3884;48.616;12.872;2023-06-22T00:52:48;9.50;;;5.57;;
7683;SDS011;3884;48.616;12.872;2023-06-22T00:55:17;11.53;;;5.80;;
7683;SDS011;3884;48.616;12.872;2023-06-22T00:57:45;10.63;;;6.03;;
7683;SDS011;3884;48.616;12.872;2023-06-22T01:00:15;8.20;;;5.83;;
7683;SDS011;3884;48.616;12.872;2023-06-22T01:02:45;7.83;;;5.70;;
7683;SDS011;3884;48.616;12.872;2023-06-22T01:05:17;9.53;;;6.50;;
7683;SDS011;3884;48.616;12.872;2023-06-22T01:07:47;10.13;;;5.67;;
7683;SDS011;3884;48.616;12.872;2023-06-22T01:10:25;11.23;;;6.30;;
7683;SDS011;3884;48.616;12.872;2023-06-22T01:12:58;8.90;;;5.80;;
7683;SDS011;3884;48.616;12.872;2023-06-22T01:15:30;12.83;;;7.90;;
7683;SDS011;3884;48.616;12.872;2023-06-22T01:18:00;12.73;;;8.90;;
7683;SDS011;3884;48.616;12.872;2023-06-22T01:20:32;18.90;;;8.80;;
7683;SDS011;3884;48.616;12.872;2023-06-22T01:23:04;14.17;;;9.50;;
7683;SDS011;3884;48.616;12.872;2023-06-22T01:25:37;11.47;;;7.23;;
7683;SDS011;3884;48.616;12.872;2023-06-22T01:28:16;11.70;;;8.23;;
7683;SDS011;3884;48.616;12.872;2023-06-22T01:30:53;12.30;;;7.33;;
7683;SDS011;3884;48.616;12.872;2023-06-22T01:33:29;12.07;;;8.73;;
7683;SDS011;3884;48.616;12.872;2023-06-22T01:35:58;12.00;;;8.63;;
7683;SDS011;3884;48.616;12.872;2023-06-22T01:38:25;10.33;;;7.17;;
7683;SDS011;3884;48.616;12.872;2023-06-22T01:40:53;10.67;;;7.17;;
7683;SDS011;3884;48.616;12.872;2023-06-22T01:43:21;16.30;;;7.23;;
7683;SDS011;3884;48.616;12.872;2023-06-22T01:45:49;10.97;;;7.00;;
7683;SDS011;3884;48.616;12.872;2023-06-22T01:48:19;11.50;;;7.30;;
7683;SDS011;3884;48.616;12.872;2023-06-22T01:50:46;9.17;;;6.60;;
7683;SDS011;3884;48.616;12.872;2023-06-22T01:53:13;10.20;;;6.30;;
7683;SDS011;3884;48.616;12.872;2023-06-22T01:55:40;9.77;;;7.10;;
7683;SDS011;3884;48.616;12.872;2023-06-22T01:58:07;9.80;;;6.77;;
7683;SDS011;3884;48.616;12.872;2023-06-22T02:00:36;9.23;;;6.47;;
7683;SDS011;3884;48.616;12.872;2023-06-22T02:03:05;12.60;;;6.40;;
7683;SDS011;3884;48.616;12.872;2023-06-22T02:05:39;9.67;;;6.00;;
7683;SDS011;3884;48.616;12.872;2023-06-22T02:08:13;12.67;;;6.10;;
7683;SDS011;3884;48.616;12.872;2023-06-22T02:10:43;10.67;;;6.17;;
7683;SDS011;3884;48.616;12.872;2023-06-22T02:13:13;11.23;;;6.70;;
7683;SDS011;3884;48.616;12.872;2023-06-22T02:15:41;8.20;;;6.20;;
7683;SDS011;3884;48.616;12.872;2023-06-22T02:18:11;9.63;;;6.17;;
7683;SDS011;3884;48.616;12.872;2023-06-22T02:20:40;9.13;;;6.20;;
7683;SDS011;3884;48.616;12.872;2023-06-22T02:23:07;7.90;;;5.17;;
7683;SDS011;3884;48.616;12.872;2023-06-22T02:25:34;9.10;;;5.97;;
7683;SDS011;3884;48.616;12.872;2023-06-22T02:28:02;7.77;;;5.47;;
7683;SDS011;3884;48.616;12.872;2023-06-22T02:30:29;9.03;;;5.73;;
7683;SDS011;3884;48.616;12.872;2023-06-22T02:32:58;7.97;;;5.33;;
7683;SDS011;3884;48.616;12.872;2023-06-22T02:35:25;9.47;;;5.37;;
7683;SDS011;3884;48.616;12.872;2023-06-22T02:37:57;11.00;;;5.50;;
7683;SDS011;3884;48.616;12.872;2023-06-22T02:40:27;9.80;;;5.33;;
7683;SDS011;3884;48.616;12.872;2023-06-22T02:42:55;9.60;;;5.27;;
7683;SDS011;3884;48.616;12.872;2023-06-22T02:45:23;8.53;;;5.53;;
7683;SDS011;3884;48.616;12.872;2023-06-22T02:47:50;9.33;;;5.70;;
7683;SDS011;3884;48.616;12.872;2023-06-22T02:50:17;10.30;;;5.67;;
7683;SDS011;3884;48.616;12.872;2023-06-22T02:52:44;9.03;;;5.43;;
7683;SDS011;3884;48.616;12.872;2023-06-22T02:55:13;7.83;;;5.23;;
7683;SDS011;3884;48.616;12.872;2023-06-22T02:57:44;9.83;;;5.60;;
7683;SDS011;3884;48.616;12.872;2023-06-22T03:00:13;10.03;;;5.60;;
7683;SDS011;3884;48.616;12.872;2023-06-22T03:02:45;7.77;;;5.23;;
7683;SDS011;3884;48.616;12.872;2023-06-22T03:05:12;10.63;;;5.67;;
7683;SDS011;3884;48.616;12.872;2023-06-22T03:07:43;8.83;;;5.70;;
7683;SDS011;3884;48.616;12.872;2023-06-22T03:10:11;11.23;;;5.57;;
7683;SDS011;3884;48.616;12.872;2023-06-22T03:12:40;8.03;;;5.57;;
7683;SDS011;3884;48.616;12.872;2023-06-22T03:15:08;7.80;;;5.07;;
7683;SDS011;3884;48.616;12.872;2023-06-22T03:17:37;9.60;;;5.63;;
7683;SDS011;3884;48.616;12.872;2023-06-22T03:20:07;7.00;;;5.47;;
7683;SDS011;3884;48.616;12.872;2023-06-22T03:22:36;9.63;;;5.67;;
7683;SDS011;3884;48.616;12.872;2023-06-22T03:25:04;8.77;;;5.90;;
7683;SDS011;3884;48.616;12.872;2023-06-22T03:27:38;10.27;;;4.87;;
7683;SDS011;3884;48.616;12.872;2023-06-22T03:30:08;8.50;;;5.33;;
7683;SDS011;3884;48.616;12.872;2023-06-22T03:32:37;9.17;;;5.50;;
7683;SDS011;3884;48.616;12.872;2023-06-22T03:35:05;6.00;;;4.53;;
7683;SDS011;3884;48.616;12.872;2023-06-22T03:37:35;7.03;;;5.00;;
7683;SDS011;3884;48.616;12.872;2023-06-22T03:40:02;6.17;;;4.53;;
7683;SDS011;3884;48.616;12.872;2023-06-22T03:42:31;7.50;;;4.70;;
7683;SDS011;3884;48.616;12.872;2023-06-22T03:44:59;9.27;;;5.00;;
7683;SDS011;3884;48.616;12.872;2023-06-22T03:47:29;7.33;;;5.03;;
7683;SDS011;3884;48.616;12.872;2023-06-22T03:49:57;5.70;;;4.60;;
7683;SDS011;3884;48.616;12.872;2023-06-22T03:52:24;7.50;;;5.10;;
7683;SDS011;3884;48.616;12.872;2023-06-22T03:54:51;6.70;;;4.50;;
7683;SDS011;3884;48.616;12.872;2023-06-22T03:57:18;7.87;;;4.57;;
7683;SDS011;3884;48.616;12.872;2023-06-22T03:59:44;7.27;;;4.93;;
7683;SDS011;3884;48.616;12.872;2023-06-22T04:02:11;8.60;;;4.50;;
7683;SDS011;3884;48.616;12.872;2023-06-22T04:04:39;6.07;;;4.27;;
7683;SDS011;3884;48.616;12.872;2023-06-22T04:07:06;9.50;;;4.73;;
7683;SDS011;3884;48.616;12.872;2023-06-22T04:09:33;9.47;;;5.20;;
7683;SDS011;3884;48.616;12.872;2023-06-22T04:12:00;10.37;;;5.17;;
7683;SDS011;3884;48.616;12.872;2023-06-22T04:14:27;6.77;;;4.77;;
7683;SDS011;3884;48.616;12.872;2023-06-22T04:16:57;8.40;;;4.73;;
7683;SDS011;3884;48.616;12.872;2023-06-22T04:19:24;7.43;;;4.90;;
7683;SDS011;3884;48.616;12.872;2023-06-22T04:21:54;6.60;;;4.60;;
7683;SDS011;3884;48.616;12.872;2023-06-22T04:24:22;6.17;;;4.70;;
7683;SDS011;3884;48.616;12.872;2023-06-22T04:26:49;5.93;;;4.20;;
7683;SDS011;3884;48.616;12.872;2023-06-22T04:29:20;5.90;;;4.27;;
7683;SDS011;3884;48.616;12.872;2023-06-22T04:31:54;6.87;;;4.47;;
7683;SDS011;3884;48.616;12.872;2023-06-22T04:34:22;7.20;;;4.77;;
7683;SDS011;3884;48.616;12.872;2023-06-22T04:36:51;6.27;;;5.27;;
7683;SDS011;3884;48.616;12.872;2023-06-22T04:39:19;9.43;;;5.03;;
7683;SDS011;3884;48.616;12.872;2023-06-22T04:41:46;7.90;;;4.93;;
7683;SDS011;3884;48.616;12.872;2023-06-22T04:44:14;6.27;;;4.30;;
7683;SDS011;3884;48.616;12.872;2023-06-22T04:46:49;8.10;;;4.70;;
7683;SDS011;3884;48.616;12.872;2023-06-22T04:49:19;7.80;;;4.87;;
7683;SDS011;3884;48.616;12.872;2023-06-22T04:51:47;6.73;;;5.30;;
7683;SDS011;3884;48.616;12.872;2023-06-22T04:54:16;9.07;;;5.03;;
7683;SDS011;3884;48.616;12.872;2023-06-22T04:56:44;6.20;;;4.47;;
7683;SDS011;3884;48.616;12.872;2023-06-22T04:59:11;8.47;;;5.07;;
7683;SDS011;3884;48.616;12.872;2023-06-22T05:01:39;7.30;;;5.47;;
7683;SDS011;3884;48.616;12.872;2023-06-22T05:04:06;5.67;;;4.40;;
7683;SDS011;3884;48.616;12.872;2023-06-22T05:06:33;7.83;;;5.00;;
7683;SDS011;3884;48.616;12.872;2023-06-22T05:08:59;7.60;;;4.97;;
7683;SDS011;3884;48.616;12.872;2023-06-22T05:11:27;6.73;;;4.60;;
7683;SDS011;3884;48.616;12.872;2023-06-22T05:13:56;6.27;;;4.67;;
7683;SDS011;3884;48.616;12.872;2023-06-22T05:16:24;7.17;;;4.63;;
7683;SDS011;3884;48.616;12.872;2023-06-22T05:18:52;9.30;;;5.30;;
7683;SDS011;3884;48.616;12.872;2023-06-22T05:21:21;7.07;;;4.70;;
7683;SDS011;3884;48.616;12.872;2023-06-22T05:23:49;12.27;;;4.97;;
7683;SDS011;3884;48.616;12.872;2023-06-22T05:26:16;8.87;;;4.63;;
7683;SDS011;3884;48.616;12.872;2023-06-22T05:28:43;6.97;;;5.07;;
7683;SDS011;3884;48.616;12.872;2023-06-22T05:31:12;6.23;;;4.50;;
7683;SDS011;3884;48.616;12.872;2023-06-22T05:33:40;7.23;;;4.83;;
7683;SDS011;3884;48.616;12.872;2023-06-22T05:36:07;7.17;;;5.10;;
7683;SDS011;3884;48.616;12.872;2023-06-22T05:38:35;9.07;;;4.50;;
7683;SDS011;3884;48.616;12.872;2023-06-22T05:41:02;7.80;;;4.90;;
7683;SDS011;3884;48.616;12.872;2023-06-22T05:43:28;8.77;;;5.00;;
7683;SDS011;3884;48.616;12.872;2023-06-22T05:45:55;6.13;;;5.13;;
7683;SDS011;3884;48.616;12.872;2023-06-22T05:48:23;6.27;;;5.10;;
7683;SDS011;3884;48.616;12.872;2023-06-22T05:50:50;7.57;;;5.07;;
7683;SDS011;3884;48.616;12.872;2023-06-22T05:53:17;6.87;;;4.60;;
7683;SDS011;3884;48.616;12.872;2023-06-22T05:55:44;6.90;;;5.13;;
7683;SDS011;3884;48.616;12.872;2023-06-22T05:58:10;11.17;;;4.97;;
7683;SDS011;3884;48.616;12.872;2023-06-22T06:00:38;6.43;;;5.60;;
7683;SDS011;3884;48.616;12.872;2023-06-22T06:03:05;9.63;;;4.93;;
7683;SDS011;3884;48.616;12.872;2023-06-22T06:05:34;8.27;;;5.43;;
7683;SDS011;3884;48.616;12.872;2023-06-22T06:08:01;9.30;;;5.40;;
7683;SDS011;3884;48.616;12.872;2023-06-22T06:10:30;5.10;;;4.60;;
7683;SDS011;3884;48.616;12.872;2023-06-22T06:12:58;9.03;;;5.40;;
7683;SDS011;3884;48.616;12.872;2023-06-22T06:15:27;6.97;;;5.50;;
7683;SDS011;3884;48.616;12.872;2023-06-22T06:17:54;6.20;;;5.60;;
7683;SDS011;3884;48.616;12.872;2023-06-22T06:20:21;7.37;;;5.77;;
7683;SDS011;3884;48.616;12.872;2023-06-22T06:22:51;5.90;;;5.20;;
7683;SDS011;3884;48.616;12.872;2023-06-22T06:25:18;6.13;;;4.80;;
7683;SDS011;3884;48.616;12.872;2023-06-22T06:27:46;6.43;;;5.37;;
7683;SDS011;3884;48.616;12.872;2023-06-22T06:30:14;6.80;;;4.97;;
7683;SDS011;3884;48.616;12.872;2023-06-22T06:32:42;10.17;;;5.30;;
7683;SDS011;3884;48.616;12.872;2023-06-22T06:35:10;7.40;;;5.00;;
7683;SDS011;3884;48.616;12.872;2023-06-22T06:37:39;6.97;;;5.20;;
7683;SDS011;3884;48.616;12.872;2023-06-22T06:40:09;8.17;;;5.13;;
7683;SDS011;3884;48.616;12.872;2023-06-22T06:42:37;6.63;;;4.93;;
7683;SDS011;3884;48.616;12.872;2023-06-22T06:45:07;5.63;;;4.70;;
7683;SDS011;3884;48.616;12.872;2023-06-22T06:47:34;6.33;;;4.80;;
7683;SDS011;3884;48.616;12.872;2023-06-22T06:50:01;6.13;;;4.43;;
7683;SDS011;3884;48.616;12.872;2023-06-22T06:52:28;6.50;;;4.57;;
7683;SDS011;3884;48.616;12.872;2023-06-22T06:54:54;6.23;;;4.77;;
7683;SDS011;3884;48.616;12.872;2023-06-22T06:57:23;7.77;;;5.00;;
7683;SDS011;3884;48.616;12.872;2023-06-22T06:59:53;7.57;;;4.50;;
7683;SDS011;3884;48.616;12.872;2023-06-22T07:02:20;6.50;;;4.80;;
7683;SDS011;3884;48.616;12.872;2023-06-22T07:04:47;5.83;;;4.53;;
7683;SDS011;3884;48.616;12.872;2023-06-22T07:07:14;6.23;;;4.80;;
7683;SDS011;3884;48.616;12.872;2023-06-22T07:09:41;6.30;;;4.83;;
7683;SDS011;3884;48.616;12.872;2023-06-22T07:12:08;7.37;;;5.40;;
7683;SDS011;3884;48.616;12.872;2023-06-22T07:14:36;5.63;;;5.00;;
7683;SDS011;3884;48.616;12.872;2023-06-22T07:17:03;7.67;;;5.20;;
7683;SDS011;3884;48.616;12.872;2023-06-22T07:19:30;8.47;;;5.53;;
7683;SDS011;3884;48.616;12.872;2023-06-22T07:21:59;9.63;;;4.87;;
7683;SDS011;3884;48.616;12.872;2023-06-22T07:24:27;5.63;;;4.97;;
7683;SDS011;3884;48.616;12.872;2023-06-22T07:26:54;7.93;;;5.10;;
7683;SDS011;3884;48.616;12.872;2023-06-22T07:29:24;8.20;;;5.17;;
7683;SDS011;3884;48.616;12.872;2023-06-22T07:34:38;6.13;;;4.90;;
7683;SDS011;3884;48.616;12.872;2023-06-22T07:37:06;8.87;;;5.00;;
7683;SDS011;3884;48.616;12.872;2023-06-22T07:39:33;7.67;;;5.57;;
7683;SDS011;3884;48.616;12.872;2023-06-22T07:41:59;6.37;;;4.80;;
7683;SDS011;3884;48.616;12.872;2023-06-22T07:44:26;8.43;;;5.43;;
7683;SDS011;3884;48.616;12.872;2023-06-22T07:46:53;7.10;;;4.80;;
7683;SDS011;3884;48.616;12.872;2023-06-22T07:49:21;7.63;;;5.17;;
7683;SDS011;3884;48.616;12.872;2023-06-22T07:51:48;9.37;;;5.47;;
7683;SDS011;3884;48.616;12.872;2023-06-22T07:54:15;13.73;;;9.40;;
7683;SDS011;3884;48.616;12.872;2023-06-22T07:56:42;6.30;;;5.00;;
7683;SDS011;3884;48.616;12.872;2023-06-22T07:59:09;8.30;;;5.13;;
7683;SDS011;3884;48.616;12.872;2023-06-22T08:01:36;7.33;;;5.20;;
7683;SDS011;3884;48.616;12.872;2023-06-22T08:04:02;7.03;;;5.20;;
7683;SDS011;3884;48.616;12.872;2023-06-22T08:06:32;6.70;;;4.90;;
7683;SDS011;3884;48.616;12.872;2023-06-22T08:08:58;8.13;;;4.90;;
7683;SDS011;3884;48.616;12.872;2023-06-22T08:11:28;6.13;;;5.03;;
7683;SDS011;3884;48.616;12.872;2023-06-22T08:13:55;7.83;;;4.63;;
7683;SDS011;3884;48.616;12.872;2023-06-22T08:16:23;7.27;;;5.20;;
7683;SDS011;3884;48.616;12.872;2023-06-22T08:18:50;11.53;;;5.17;;
7683;SDS011;3884;48.616;12.872;2023-06-22T08:21:17;7.03;;;5.07;;
7683;SDS011;3884;48.616;12.872;2023-06-22T08:23:45;6.93;;;5.50;;
7683;SDS011;3884;48.616;12.872;2023-06-22T08:26:12;6.27;;;4.87;;
7683;SDS011;3884;48.616;12.872;2023-06-22T08:28:40;7.37;;;4.80;;
7683;SDS011;3884;48.616;12.872;2023-06-22T08:31:06;8.40;;;4.70;;
7683;SDS011;3884;48.616;12.872;2023-06-22T08:33:34;8.23;;;4.70;;
7683;SDS011;3884;48.616;12.872;2023-06-22T08:36:01;6.07;;;4.50;;
7683;SDS011;3884;48.616;12.872;2023-06-22T08:38:27;6.70;;;4.80;;
7683;SDS011;3884;48.616;12.872;2023-06-22T08:40:55;7.57;;;5.13;;
7683;SDS011;3884;48.616;12.872;2023-06-22T08:43:22;8.93;;;5.17;;
7683;SDS011;3884;48.616;12.872;2023-06-22T08:45:49;7.60;;;4.57;;
7683;SDS011;3884;48.616;12.872;2023-06-22T08:48:16;7.50;;;4.80;;
7683;SDS011;3884;48.616;12.872;2023-06-22T08:50:42;6.97;;;4.60;;
7683;SDS011;3884;48.616;12.872;2023-06-22T08:53:09;6.47;;;4.63;;
7683;SDS011;3884;48.616;12.872;2023-06-22T08:55:37;9.97;;;5.30;;
7683;SDS011;3884;48.616;12.872;2023-06-22T08:58:05;6.77;;;4.60;;
7683;SDS011;3884;48.616;12.872;2023-06-22T09:00:32;6.93;;;4.47;;
7683;SDS011;3884;48.616;12.872;2023-06-22T09:03:00;7.47;;;4.83;;
7683;SDS011;3884;48.616;12.872;2023-06-22T09:05:27;6.70;;;4.90;;
7683;SDS011;3884;48.616;12.872;2023-06-22T09:07:53;6.90;;;4.70;;
7683;SDS011;3884;48.616;12.872;2023-06-22T09:10:23;8.47;;;4.77;;
7683;SDS011;3884;48.616;12.872;2023-06-22T09:12:50;8.83;;;4.93;;
7683;SDS011;3884;48.616;12.872;2023-06-22T09:15:18;7.47;;;4.80;;
7683;SDS011;3884;48.616;12.872;2023-06-22T09:17:45;5.20;;;4.20;;
7683;SDS011;3884;48.616;12.872;2023-06-22T09:20:12;7.53;;;4.80;;
7683;SDS011;3884;48.616;12.872;2023-06-22T09:22:39;6.80;;;4.73;;
7683;SDS011;3884;48.616;12.872;2023-06-22T09:25:06;5.63;;;4.70;;
7683;SDS011;3884;48.616;12.872;2023-06-22T09:27:33;6.43;;;4.80;;
7683;SDS011;3884;48.616;12.872;2023-06-22T09:30:00;7.27;;;4.83;;
7683;SDS011;3884;48.616;12.872;2023-06-22T09:32:30;7.67;;;4.77;;
7683;SDS011;3884;48.616;12.872;2023-06-22T09:34:56;7.37;;;5.00;;
7683;SDS011;3884;48.616;12.872;2023-06-22T09:37:23;6.20;;;4.53;;
7683;SDS011;3884;48.616;12.872;2023-06-22T09:39:50;5.57;;;4.27;;
7683;SDS011;3884;48.616;12.872;2023-06-22T09:42:16;6.97;;;5.03;;
7683;SDS011;3884;48.616;12.872;2023-06-22T09:44:43;7.40;;;4.57;;
7683;SDS011;3884;48.616;12.872;2023-06-22T09:47:10;5.83;;;4.40;;
7683;SDS011;3884;48.616;12.872;2023-06-22T09:49:38;6.43;;;4.70;;
7683;SDS011;3884;48.616;12.872;2023-06-22T09:52:05;7.80;;;4.80;;
7683;SDS011;3884;48.616;12.872;2023-06-22T09:54:32;7.60;;;4.70;;
7683;SDS011;3884;48.616;12.872;2023-06-22T09:56:59;8.70;;;4.83;;
7683;SDS011;3884;48.616;12.872;2023-06-22T09:59:26;7.97;;;4.87;;
7683;SDS011;3884;48.616;12.872;2023-06-22T10:01:53;7.50;;;4.83;;
7683;SDS011;3884;48.616;12.872;2023-06-22T10:04:20;8.40;;;5.10;;
7683;SDS011;3884;48.616;12.872;2023-06-22T10:06:51;8.13;;;5.27;;
7683;SDS011;3884;48.616;12.872;2023-06-22T10:09:18;6.90;;;4.70;;
7683;SDS011;3884;48.616;12.872;2023-06-22T10:11:44;10.07;;;5.33;;
7683;SDS011;3884;48.616;12.872;2023-06-22T10:14:11;8.90;;;4.63;;
7683;SDS011;3884;48.616;12.872;2023-06-22T10:16:38;7.47;;;4.73;;
7683;SDS011;3884;48.616;12.872;2023-06-22T10:19:06;8.23;;;4.70;;
7683;SDS011;3884;48.616;12.872;2023-06-22T10:21:35;6.83;;;4.83;;
7683;SDS011;3884;48.616;12.872;2023-06-22T10:24:03;9.00;;;5.00;;
7683;SDS011;3884;48.616;12.872;2023-06-22T10:26:32;7.00;;;4.70;;
7683;SDS011;3884;48.616;12.872;2023-06-22T10:28:58;6.17;;;4.50;;
7683;SDS011;3884;48.616;12.872;2023-06-22T10:31:25;7.10;;;4.63;;
7683;SDS011;3884;48.616;12.872;2023-06-22T10:33:52;5.97;;;4.20;;
7683;SDS011;3884;48.616;12.872;2023-06-22T10:36:19;12.27;;;5.13;;
7683;SDS011;3884;48.616;12.872;2023-06-22T10:38:46;8.70;;;4.47;;
7683;SDS011;3884;48.616;12.872;2023-06-22T10:41:14;7.80;;;4.60;;
7683;SDS011;3884;48.616;12.872;2023-06-22T10:43:42;10.03;;;5.33;;
7683;SDS011;3884;48.616;12.872;2023-06-22T10:46:09;10.13;;;4.60;;
7683;SDS011;3884;48.616;12.872;2023-06-22T10:48:36;7.17;;;4.70;;
7683;SDS011;3884;48.616;12.872;2023-06-22T10:51:03;8.30;;;4.50;;
7683;SDS011;3884;48.616;12.872;2023-06-22T10:53:30;7.00;;;4.27;;
7683;SDS011;3884;48.616;12.872;2023-06-22T10:55:58;11.37;;;4.90;;
7683;SDS011;3884;48.616;12.872;2023-06-22T10:58:26;8.70;;;4.70;;
7683;SDS011;3884;48.616;12.872;2023-06-22T11:00:53;9.40;;;4.90;;
7683;SDS011;3884;48.616;12.872;2023-06-22T11:03:19;7.67;;;4.97;;
7683;SDS011;3884;48.616;12.872;2023-06-22T11:05:46;8.77;;;4.57;;
7683;SDS011;3884;48.616;12.872;2023-06-22T11:08:13;8.13;;;4.43;;
7683;SDS011;3884;48.616;12.872;2023-06-22T11:10:40;8.70;;;4.60;;
7683;SDS011;3884;48.616;12.872;2023-06-22T11:13:07;7.83;;;4.37;;
7683;SDS011;3884;48.616;12.872;2023-06-22T11:15:36;7.47;;;4.53;;
7683;SDS011;3884;48.616;12.872;2023-06-22T11:18:03;8.53;;;4.63;;
7683;SDS011;3884;48.616;12.872;2023-06-22T11:20:32;6.60;;;4.57;;
7683;SDS011;3884;48.616;12.872;2023-06-22T11:23:03;12.67;;;5.27;;
7683;SDS011;3884;48.616;12.872;2023-06-22T11:25:30;14.47;;;5.20;;
7683;SDS011;3884;48.616;12.872;2023-06-22T11:27:57;11.23;;;5.27;;
7683;SDS011;3884;48.616;12.872;2023-06-22T11:30:24;7.67;;;4.90;;
7683;SDS011;3884;48.616;12.872;2023-06-22T11:32:52;8.90;;;4.97;;
7683;SDS011;3884;48.616;12.872;2023-06-22T11:35:19;8.20;;;4.80;;
7683;SDS011;3884;48.616;12.872;2023-06-22T11:37:46;7.57;;;4.47;;
7683;SDS011;3884;48.616;12.872;2023-06-22T11:40:12;11.17;;;5.17;;
7683;SDS011;3884;48.616;12.872;2023-06-22T11:42:39;13.53;;;4.83;;
7683;SDS011;3884;48.616;12.872;2023-06-22T11:45:06;10.23;;;5.37;;
7683;SDS011;3884;48.616;12.872;2023-06-22T11:47:34;11.97;;;4.97;;
7683;SDS011;3884;48.616;12.872;2023-06-22T11:50:04;8.73;;;5.10;;
7683;SDS011;3884;48.616;12.872;2023-06-22T11:52:32;11.90;;;5.00;;
7683;SDS011;3884;48.616;12.872;2023-06-22T11:55:01;11.13;;;4.53;;
7683;SDS011;3884;48.616;12.872;2023-06-22T11:57:28;7.90;;;4.70;;
7683;SDS011;3884;48.616;12.872;2023-06-22T11:59:55;12.20;;;4.80;;
7683;SDS011;3884;48.616;12.872;2023-06-22T12:02:22;14.83;;;5.63;;
7683;SDS011;3884;48.616;12.872;2023-06-22T12:04:49;9.70;;;4.60;;
7683;SDS011;3884;48.616;12.872;2023-06-22T12:07:19;11.80;;;4.97;;
7683;SDS011;3884;48.616;12.872;2023-06-22T12:09:45;12.60;;;4.70;;
7683;SDS011;3884;48.616;12.872;2023-06-22T12:12:12;10.77;;;5.10;;
7683;SDS011;3884;48.616;12.872;2023-06-22T12:14:39;11.93;;;4.80;;
7683;SDS011;3884;48.616;12.872;2023-06-22T12:17:06;13.23;;;5.97;;
7683;SDS011;3884;48.616;12.872;2023-06-22T12:19:33;11.73;;;5.47;;
7683;SDS011;3884;48.616;12.872;2023-06-22T12:22:00;10.33;;;4.67;;
7683;SDS011;3884;48.616;12.872;2023-06-22T12:24:28;10.83;;;4.90;;
7683;SDS011;3884;48.616;12.872;2023-06-22T12:26:55;13.73;;;5.50;;
7683;SDS011;3884;48.616;12.872;2023-06-22T12:29:22;11.70;;;5.67;;
7683;SDS011;3884;48.616;12.872;2023-06-22T12:31:49;12.13;;;5.17;;
7683;SDS011;3884;48.616;12.872;2023-06-22T12:34:15;11.43;;;4.83;;
7683;SDS011;3884;48.616;12.872;2023-06-22T12:36:43;10.77;;;5.13;;
7683;SDS011;3884;48.616;12.872;2023-06-22T12:39:12;10.67;;;5.07;;
7683;SDS011;3884;48.616;12.872;2023-06-22T12:41:40;9.90;;;5.00;;
7683;SDS011;3884;48.616;12.872;2023-06-22T12:44:07;15.20;;;5.50;;
7683;SDS011;3884;48.616;12.872;2023-06-22T12:46:34;10.13;;;5.17;;
7683;SDS011;3884;48.616;12.872;2023-06-22T12:49:02;13.80;;;5.30;;
7683;SDS011;3884;48.616;12.872;2023-06-22T12:51:30;11.03;;;4.93;;
7683;SDS011;3884;48.616;12.872;2023-06-22T12:53:56;11.60;;;5.30;;
7683;SDS011;3884;48.616;12.872;2023-06-22T12:56:23;10.70;;;4.83;;
7683;SDS011;3884;48.616;12.872;2023-06-22T12:58:52;16.77;;;5.20;;
7683;SDS011;3884;48.616;12.872;2023-06-22T13:01:19;8.00;;;4.73;;
7683;SDS011;3884;48.616;12.872;2023-06-22T13:03:46;16.13;;;5.53;;
7683;SDS011;3884;48.616;12.872;2023-06-22T13:06:13;13.90;;;5.00;;
7683;SDS011;3884;48.616;12.872;2023-06-22T13:08:39;13.67;;;5.40;;
7683;SDS011;3884;48.616;12.872;2023-06-22T13:11:06;12.17;;;4.83;;
7683;SDS011;3884;48.616;12.872;2023-06-22T13:13:33;13.47;;;5.47;;
7683;SDS011;3884;48.616;12.872;2023-06-22T13:16:02;12.07;;;5.57;;
7683;SDS011;3884;48.616;12.872;2023-06-22T13:18:29;10.03;;;5.00;;
7683;SDS011;3884;48.616;12.872;2023-06-22T13:20:55;14.17;;;5.27;;
7683;SDS011;3884;48.616;12.872;2023-06-22T13:23:23;14.87;;;5.60;;
7683;SDS011;3884;48.616;12.872;2023-06-22T13:25:50;12.53;;;5.93;;
7683;SDS011;3884;48.616;12.872;2023-06-22T13:28:16;13.30;;;5.70;;
7683;SDS011;3884;48.616;12.872;2023-06-22T13:30:46;14.03;;;5.70;;
7683;SDS011;3884;48.616;12.872;2023-06-22T13:33:15;12.77;;;5.17;;
7683;SDS011;3884;48.616;12.872;2023-06-22T13:35:43;11.73;;;5.57;;
7683;SDS011;3884;48.616;12.872;2023-06-22T13:38:10;13.73;;;5.10;;
7683;SDS011;3884;48.616;12.872;2023-06-22T13:40:37;13.50;;;5.40;;
7683;SDS011;3884;48.616;12.872;2023-06-22T13:43:04;10.30;;;5.33;;
7683;SDS011;3884;48.616;12.872;2023-06-22T13:45:31;12.27;;;5.60;;
7683;SDS011;3884;48.616;12.872;2023-06-22T13:47:58;10.00;;;5.20;;
7683;SDS011;3884;48.616;12.872;2023-06-22T13:50:26;12.00;;;5.83;;
7683;SDS011;3884;48.616;12.872;2023-06-22T13:52:54;14.57;;;5.57;;
7683;SDS011;3884;48.616;12.872;2023-06-22T13:55:21;10.73;;;5.10;;
7683;SDS011;3884;48.616;12.872;2023-06-22T13:57:49;12.33;;;5.70;;
7683;SDS011;3884;48.616;12.872;2023-06-22T14:00:16;12.00;;;5.77;;
7683;SDS011;3884;48.616;12.872;2023-06-22T14:02:44;14.67;;;5.93;;
7683;SDS011;3884;48.616;12.872;2023-06-22T14:05:10;13.23;;;5.27;;
7683;SDS011;3884;48.616;12.872;2023-06-22T14:07:39;20.93;;;6.40;;
7683;SDS011;3884;48.616;12.872;2023-06-22T14:10:06;12.53;;;5.17;;
7683;SDS011;3884;48.616;12.872;2023-06-22T14:12:33;13.33;;;5.90;;
7683;SDS011;3884;48.616;12.872;2023-06-22T14:15:00;12.10;;;5.00;;
7683;SDS011;3884;48.616;12.872;2023-06-22T14:17:26;11.57;;;5.50;;
7683;SDS011;3884;48.616;12.872;2023-06-22T14:19:53;13.10;;;5.97;;
7683;SDS011;3884;48.616;12.872;2023-06-22T14:22:20;11.13;;;5.73;;
7683;SDS011;3884;48.616;12.872;2023-06-22T14:24:49;24.10;;;5.93;;
7683;SDS011;3884;48.616;12.872;2023-06-22T14:27:16;17.47;;;6.03;;
7683;SDS011;3884;48.616;12.872;2023-06-22T14:29:44;12.60;;;6.10;;
7683;SDS011;3884;48.616;12.872;2023-06-22T14:32:10;10.60;;;5.13;;
7683;SDS011;3884;48.616;12.872;2023-06-22T14:34:37;11.83;;;5.43;;
7683;SDS011;3884;48.616;12.872;2023-06-22T14:37:05;13.77;;;6.27;;
7683;SDS011;3884;48.616;12.872;2023-06-22T14:39:32;12.37;;;6.00;;
7683;SDS011;3884;48.616;12.872;2023-06-22T14:42:00;13.00;;;5.20;;
7683;SDS011;3884;48.616;12.872;2023-06-22T14:44:28;13.20;;;5.63;;
7683;SDS011;3884;48.616;12.872;2023-06-22T14:46:55;11.37;;;6.03;;
7683;SDS011;3884;48.616;12.872;2023-06-22T14:49:22;12.63;;;5.70;;
7683;SDS011;3884;48.616;12.872;2023-06-22T14:51:49;15.37;;;5.60;;
7683;SDS011;3884;48.616;12.872;2023-06-22T14:54:16;11.57;;;5.33;;
7683;SDS011;3884;48.616;12.872;2023-06-22T14:56:43;12.87;;;6.33;;
7683;SDS011;3884;48.616;12.872;2023-06-22T14:59:12;10.93;;;5.50;;
7683;SDS011;3884;48.616;12.872;2023-06-22T15:01:38;11.47;;;5.70;;
7683;SDS011;3884;48.616;12.872;2023-06-22T15:04:05;10.67;;;5.40;;